Latest Weather Observations for Canberra

IDN60801

Issued at 3:35 pm EST Sunday 21 September 2014 (issued every 30 minutes, with the page automatically refreshed every 10 minutes)

About weather observations | Map of weather stations | Latest weather observations for NSW | Other Formats
Station Details ID: 070351 Name: CANBERRA AIRPORT Lat: -35.31 Lon: 149.20 Height: 577.05 m
Data from the previous 72 hours. | See also: Recent months at Canberra
Date/Time
EST
Temp
°C
App
Temp
°C
Dew
Point
Rel
Hum
%
Delta-T
°C
Wind Press
QNH
hPa
Press
MSL
hPa
Rain
since 9 am
mm
Dir
 
Spd
km/h
Gust
km/h
Spd
kts
Gust
kts
21/03:30pm 17.0 14.4 5.9 48 5.5 NNW 9 15 5 8 1026.8 - 0.0
21/03:00pm 16.8 13.7 5.4 47 5.6 N 11 15 6 8 1026.9 1027.2 0.0
21/02:30pm 17.3 15.2 6.5 49 5.5 NNW 7 15 4 8 1027.1 - 0.0
21/02:00pm 17.2 15.0 6.1 48 5.6 NW 7 17 4 9 1027.3 - 0.0
21/01:30pm 17.1 14.6 6.6 50 5.3 N 9 13 5 7 1027.6 - 0.0
21/01:00pm 15.7 12.9 5.0 49 5.2 NW 9 17 5 9 1028.2 - 0.0
21/12:30pm 15.4 12.6 5.3 51 4.9 W 9 15 5 8 1028.8 - 0.0
21/12:00pm 15.0 12.2 5.0 51 4.8 NNE 9 13 5 7 1029.3 1029.7 0.0
21/11:30am 14.0 11.1 4.9 54 4.4 N 9 15 5 8 1029.6 - 0.0
21/11:00am 13.2 10.8 4.4 55 4.2 WNW 6 11 3 6 1030.0 - 0.0
21/10:30am 13.5 11.4 5.7 59 3.8 N 6 15 3 8 1030.4 - 0.0
21/10:00am 11.9 9.4 3.7 57 3.8 W 6 9 3 5 1030.7 - 0.0
21/09:30am 11.6 9.5 5.7 67 2.8 ENE 6 9 3 5 1030.8 - 0.0
21/09:00am 10.8 8.6 6.4 74 2.1 WSW 7 9 4 5 1030.9 1031.3 0.0
21/08:30am 9.9 8.3 6.4 79 1.7 WSW 4 7 2 4 1030.9 - 0.0
21/08:00am 9.1 7.8 6.2 82 1.4 SSE 2 7 1 4 1030.8 - 0.0
21/07:30am 8.2 6.1 6.0 86 1.0 ESE 6 7 3 4 1030.4 - 0.0
21/07:00am 7.7 5.5 6.2 90 0.7 SSE 7 9 4 5 1029.7 - 0.0
21/06:30am 7.0 4.9 5.6 91 0.6 SE 6 9 3 5 1029.1 - 0.0
21/06:00am 6.6 4.2 5.4 92 0.5 SE 7 11 4 6 1028.6 1029.0 0.0
21/05:36am 6.6 3.8 5.2 91 0.6 SSE 9 9 5 5 1028.5 - 0.0
21/05:30am 6.7 4.3 5.3 91 0.6 SSE 7 9 4 5 1028.1 - 0.0
21/05:00am 6.7 5.7 5.5 92 0.6 CALM 0 0 0 0 1027.8 - 0.0
21/04:30am 6.5 4.3 5.5 93 0.5 SSE 6 7 3 4 1027.5 - 0.0
21/04:00am 6.1 3.7 5.1 93 0.5 SSE 7 9 4 5 1027.3 - 0.0
21/03:30am 6.2 3.4 5.3 94 0.4 N 9 13 5 7 1027.4 - 0.0
21/03:00am 6.0 3.5 5.0 93 0.4 NNW 7 9 4 5 1027.5 1027.9 0.0
21/02:30am 5.6 2.4 5.2 97 0.2 S 11 15 6 8 1027.9 - 0.0
21/02:00am 4.5 3.1 3.6 94 0.4 CALM 0 0 0 0 1027.9 - 0.0
21/01:51am 4.2 2.7 2.9 91 0.5 CALM 0 6 0 3 1028.0 - 0.0
21/01:30am 5.1 2.4 3.9 92 0.5 NE 7 7 4 4 1028.2 - 0.0
21/01:00am 5.5 3.1 4.3 92 0.5 N 6 11 3 6 1028.5 - 0.0
21/12:30am 5.2 2.7 4.0 92 0.5 SE 6 9 3 5 1028.6 - 0.0
21/12:00am 5.8 3.1 3.8 87 0.9 ESE 7 9 4 5 1028.7 1029.1 0.0
 
Date/Time
EST
Temp
°C
App
Temp
°C
Dew
Point
Rel
Hum
%
Delta-T
°C
Wind Press
QNH
hPa
Press
MSL
hPa
Rain
since 9 am
mm
Dir
 
Spd
km/h
Gust
km/h
Spd
kts
Gust
kts
20/11:30pm 6.3 3.4 4.6 89 0.8 E 9 11 5 6 1028.6 - 0.0
20/11:00pm 5.3 2.2 3.5 88 0.8 SE 9 11 5 6 1028.6 - 0.0
20/10:30pm 6.4 3.8 4.2 86 1.0 ESE 7 9 4 5 1028.6 - 0.0
20/10:00pm 6.0 2.4 3.0 81 1.3 SE 11 11 6 6 1028.2 - 0.0
20/09:30pm 7.8 5.3 4.7 81 1.4 SE 7 9 4 5 1028.1 - 0.0
20/09:00pm 9.0 6.5 4.6 74 2.0 E 7 9 4 5 1027.8 1028.2 0.0
20/08:30pm 8.9 5.9 3.9 71 2.3 SE 9 15 5 8 1027.5 - 0.0
20/08:00pm 10.0 5.5 4.4 68 2.6 ESE 17 24 9 13 1026.9 - 0.0
20/07:30pm 10.8 5.7 4.0 63 3.1 E 20 28 11 15 1026.3 - 0.0
20/07:00pm 12.2 7.3 4.2 58 3.7 E 19 35 10 19 1025.6 - 0.0
20/06:30pm 12.3 9.4 4.5 59 3.7 SW 9 13 5 7 1024.9 - 0.0
20/06:00pm 11.1 8.1 3.9 61 3.3 SSW 9 11 5 6 1024.3 1024.7 0.0
20/05:30pm 14.5 11.3 5.3 54 4.5 W 11 15 6 8 1023.6 - 0.0
20/05:00pm 16.7 12.9 1.6 36 6.9 W 11 15 6 8 1023.2 - 0.0
20/04:30pm 17.2 13.4 -0.5 30 7.8 SW 9 17 5 9 1023.0 - 0.0
20/04:00pm 17.9 14.6 0.1 30 8.0 S 7 15 4 8 1022.6 - 0.0
20/03:30pm 17.6 14.0 0.3 31 7.8 SSW 9 17 5 9 1022.4 - 0.0
20/03:00pm 17.9 14.4 -1.3 27 8.3 NNW 7 11 4 6 1022.5 1022.9 0.0
20/02:30pm 17.1 13.1 -2.0 27 8.2 SSE 9 17 5 9 1022.7 - 0.0
20/02:00pm 16.8 12.8 -2.3 27 8.1 S 9 13 5 7 1022.8 - 0.0
20/01:30pm 16.7 12.9 -0.9 30 7.7 WNW 9 15 5 8 1023.1 - 0.0
20/01:00pm 16.0 12.0 -2.0 29 7.6 WSW 9 13 5 7 1023.3 - 0.0
20/12:30pm 15.6 11.5 -0.2 34 6.9 WNW 11 15 6 8 1023.7 - 0.0
20/12:00pm 14.7 11.4 0.2 37 6.3 SW 7 11 4 6 1024.0 1024.4 0.0
20/11:30am 13.5 10.0 1.5 44 5.3 WSW 9 15 5 8 1024.3 - 0.0
20/11:00am 13.2 8.6 1.5 45 5.2 SW 15 24 8 13 1024.8 - 0.0
20/10:30am 13.0 8.1 2.3 48 4.8 SSW 17 24 9 13 1024.8 - 0.0
20/10:00am 11.8 6.9 1.7 50 4.4 S 17 20 9 11 1025.0 - 0.0
20/09:30am 11.0 5.7 1.8 53 4.0 SE 19 28 10 15 1025.0 - 0.0
20/09:00am 10.6 6.7 3.4 61 3.2 SE 13 20 7 11 1025.0 1025.3 0.0
20/08:30am 9.1 4.4 2.9 65 2.7 SE 17 24 9 13 1024.8 - 0.0
20/08:00am 7.1 5.4 4.2 82 1.3 ENE 2 9 1 5 1024.8 - 0.0
20/07:30am 3.0 1.0 2.1 94 0.4 N 2 6 1 3 1024.5 - 0.0
20/07:00am 0.3 -1.8 -0.7 93 0.4 CALM 0 0 0 0 1024.2 - 0.0
20/06:30am -0.7 -3.3 -1.5 94 0.3 N 2 6 1 3 1023.9 - 0.0
20/06:00am -0.9 -3.1 -1.5 96 0.2 CALM 0 0 0 0 1023.4 1023.7 0.0
20/05:30am -1.5 -3.8 -2.3 94 0.2 CALM 0 0 0 0 1022.8 - 0.0
20/05:00am -0.1 -2.6 -1.2 92 0.4 E 2 7 1 4 1022.5 - 0.0
20/04:30am 0.6 -1.4 -0.3 94 0.3 CALM 0 0 0 0 1022.1 - 0.0
20/04:00am 0.7 -1.3 0.0 95 0.3 CALM 0 0 0 0 1021.9 - 0.0
20/03:30am 0.1 -3.1 -0.7 94 0.3 S 6 6 3 3 1021.7 - 0.0
20/03:00am 0.8 -1.6 -0.5 91 0.5 ENE 2 7 1 4 1021.7 1022.0 0.0
20/02:30am 0.4 -2.4 -0.6 93 0.4 ESE 4 9 2 5 1021.7 - 0.0
20/02:00am 0.1 -3.3 -1.8 87 0.7 N 6 9 3 5 1021.8 - 0.0
20/01:30am 1.3 -1.4 0.0 91 0.5 SW 4 7 2 4 1021.9 - 0.0
20/01:00am 1.3 -1.9 -0.5 88 0.7 SSE 6 7 3 4 1021.8 - 0.0
20/12:30am 1.2 -2.1 -0.9 86 0.8 ESE 6 11 3 6 1021.9 - 0.0
20/12:00am 3.0 0.0 0.9 86 0.8 ENE 6 7 3 4 1021.7 1022.0 0.0
 
Date/Time
EST
Temp
°C
App
Temp
°C
Dew
Point
Rel
Hum
%
Delta-T
°C
Wind Press
QNH
hPa
Press
MSL
hPa
Rain
since 9 am
mm
Dir
 
Spd
km/h
Gust
km/h
Spd
kts
Gust
kts
19/11:30pm 1.5 -1.1 -1.6 80 1.1 NNE 2 9 1 5 1021.9 - 0.0
19/11:00pm 3.3 0.2 0.4 81 1.1 ESE 6 11 3 6 1021.9 - 0.0
19/10:30pm 3.7 0.1 0.9 82 1.1 NNW 9 13 5 7 1022.0 - 0.0
19/10:00pm 4.6 1.3 0.4 74 1.7 NE 7 9 4 5 1022.0 - 0.0
19/09:30pm 4.7 1.7 1.7 81 1.2 E 7 9 4 5 1021.9 - 0.0
19/09:00pm 4.6 2.7 0.7 76 1.6 CALM 0 0 0 0 1021.7 1022.0 0.0
19/08:30pm 5.5 2.2 0.3 69 2.1 E 7 9 4 5 1021.6 - 0.0
19/08:00pm 8.0 4.5 1.2 62 2.9 N 9 11 5 6 1021.4 - 0.0
19/07:30pm 8.8 5.4 1.7 61 3.0 N 9 15 5 8 1020.8 - 0.0
19/07:00pm 11.0 6.9 2.1 54 3.9 N 13 19 7 10 1020.3 - 0.0
19/06:30pm 11.3 6.9 2.6 55 3.9 NNE 15 17 8 9 1019.9 - 0.0
19/06:00pm 11.5 7.4 2.5 54 4.0 NE 13 15 7 8 1019.6 1019.9 0.0
19/05:30pm 12.8 8.5 3.2 52 4.4 N 15 19 8 10 1019.4 - 0.0
19/05:00pm 13.8 8.6 3.3 49 4.9 N 20 28 11 15 1019.3 - 0.0
19/04:30pm 14.6 9.6 3.4 47 5.2 N 19 24 10 13 1019.0 - 0.0
19/04:00pm 14.9 9.8 2.8 44 5.6 N 19 26 10 14 1018.8 - 0.0
19/03:30pm 15.4 11.0 2.6 42 5.9 NW 15 22 8 12 1018.6 - 0.0
19/03:00pm 15.8 11.6 3.9 45 5.7 N 15 22 8 12 1018.6 1018.9 0.0
19/02:30pm 15.6 11.2 2.7 42 6.0 NNW 15 19 8 10 1018.8 - 0.0
19/02:00pm 15.5 12.0 3.6 45 5.6 NNW 11 22 6 12 1019.0 - 0.0
19/01:30pm 15.2 11.4 1.7 40 6.1 WNW 11 19 6 10 1019.3 - 0.0
19/01:00pm 14.2 10.6 0.8 40 5.9 N 9 15 5 8 1019.6 - 0.0
19/12:30pm 13.5 10.0 1.2 43 5.4 WNW 9 17 5 9 1020.1 - 0.0
19/12:00pm 13.1 10.1 1.8 46 5.0 N 7 11 4 6 1020.6 1020.9 0.0
19/11:30am 11.7 8.8 2.5 53 4.1 NNE 7 17 4 9 1021.2 - 0.0
19/11:00am 10.9 7.3 0.6 49 4.4 NNW 9 15 5 8 1021.8 - 0.0
19/10:30am 10.0 6.4 0.9 53 3.9 NNE 9 13 5 7 1022.2 - 0.0
19/10:00am 9.6 6.4 0.8 54 3.7 NNE 7 9 4 5 1022.3 - 0.0
19/09:30am 8.2 5.2 1.1 61 3.0 SW 6 9 3 5 1022.5 - 0.0
19/09:00am 6.9 4.1 1.8 70 2.1 NNW 6 7 3 4 1022.7 1023.1 0.0
19/08:30am 5.0 2.9 1.7 79 1.4 SW 2 7 1 4 1022.7 - 0.0
19/08:00am 3.1 1.3 1.3 88 0.7 CALM 0 6 0 3 1022.7 - 0.0
19/07:30am 1.1 -0.9 -0.4 90 0.6 CALM 0 0 0 0 1022.6 - 0.0
19/07:00am -0.9 -3.1 -1.9 93 0.3 CALM 0 0 0 0 1022.4 - 0.0
19/06:30am -2.2 -4.6 -3.0 94 0.2 CALM 0 0 0 0 1022.2 - 0.0
19/06:00am -3.3 -5.8 -3.8 96 0.0 CALM 0 2 0 1 1022.0 1022.3 0.0
19/05:30am -3.8 -8.1 -4.8 93 0.2 E 9 13 5 7 1021.7 - 0.0
19/05:00am -3.1 -6.9 -3.8 95 0.1 WSW 7 11 4 6 1021.3 - 0.0
19/04:30am -3.2 -7.4 -3.9 95 0.1 SSE 9 9 5 5 1020.9 - 0.0
19/04:00am -2.5 -6.1 -3.5 93 0.2 NNE 6 7 3 4 1020.9 - 0.0
19/03:30am -2.9 -5.4 -3.6 95 0.1 CALM 0 0 0 0 1020.7 - 0.0
19/03:00am -0.9 -3.1 -1.7 94 0.2 CALM 0 0 0 0 1020.7 1021.0 0.0
19/02:30am -0.8 -4.2 -1.8 93 0.3 NE 6 7 3 4 1021.1 - 0.0
19/02:00am -0.9 -3.1 -1.9 93 0.3 CALM 0 0 0 0 1021.2 - 0.0
19/01:30am -2.3 -6.1 -3.7 90 0.4 S 7 7 4 4 1021.4 - 0.0
19/01:00am 0.1 -3.3 -0.7 94 0.3 ESE 7 9 4 5 1021.5 - 0.0
19/12:30am -1.0 -3.4 -3.2 85 0.7 CALM 0 0 0 0 1021.4 - 0.0
19/12:00am -0.4 -3.5 -2.3 87 0.6 NNW 4 7 2 4 1021.5 1021.8 0.0
 
Date/Time
EST
Temp
°C
App
Temp
°C
Dew
Point
Rel
Hum
%
Delta-T
°C
Wind Press
QNH
hPa
Press
MSL
hPa
Rain
since 9 am
mm
Dir
 
Spd
km/h
Gust
km/h
Spd
kts
Gust
kts
18/11:30pm 1.9 -1.2 0.0 87 0.7 E 6 7 3 4 1021.6 - 0.0
18/11:00pm 1.8 -1.5 -1.1 81 1.1 NNE 6 7 3 4 1021.6 - 0.0
18/10:30pm 2.6 -0.2 -0.7 79 1.2 N 4 7 2 4 1021.4 - 0.0
18/10:00pm 2.3 -1.4 -0.3 83 1.0 ESE 9 11 5 6 1021.2 - 0.0
18/09:30pm 2.4 -0.8 -0.5 81 1.1 NNE 6 7 3 4 1021.1 - 0.0
18/09:00pm 4.3 1.1 0.6 77 1.5 ENE 7 9 4 5 1020.9 1021.2 0.0
18/08:30pm 5.6 2.5 0.0 67 2.2 ENE 6 9 3 5 1020.6 - 0.0
18/08:00pm 8.0 4.1 1.2 62 2.9 W 11 15 6 8 1020.4 - 0.0
18/07:30pm 8.8 3.9 1.7 61 3.0 WNW 17 26 9 14 1020.0 - 0.0
18/07:00pm 9.3 4.0 1.7 59 3.3 WNW 19 28 10 15 1019.7 - 0.0
18/06:30pm 9.4 3.9 1.8 59 3.3 NW 20 28 11 15 1019.4 - 0.0
18/06:00pm 10.0 3.3 1.4 55 3.7 NW 26 33 14 18 1019.0 1019.3 0.0
18/05:30pm 11.0 4.7 1.3 51 4.2 WNW 24 32 13 17 1018.6 - 0.0
18/05:00pm 11.6 4.5 1.5 50 4.4 WNW 28 41 15 22 1018.2 - 0.0
18/04:30pm 12.6 5.2 1.9 48 4.8 WNW 30 41 16 22 1017.9 - 0.0
18/04:00pm 13.0 6.5 2.5 49 4.8 NNW 26 39 14 21 1017.6 - 0.0

Other Formats:

Comma delimited format used in spreadsheet applications
http://www.bom.gov.au/fwo/IDN60801/IDN60801.94926.axf

JavaScript Object Notation format (JSON) in row-major order
http://www.bom.gov.au/fwo/IDN60801/IDN60801.94926.json